Time;durP1;ratioP1;P1;durP2;ratioP2;P2;SDS_P1;SDS_P2;PMS_P1;PMS_P2;Temp;Humidity;BMP_temperature;BMP_pressure;BME280_temperature;BME280_humidity;BME280_pressure;Samples;Min_cycle;Max_cycle;Signal;HPM_P1;HPM_P2
2022/05/03 00:01:36;;;;;;;10.80;8.70;;;14.80;67.00;;;;;;4936287;29;20032;-64
2022/05/03 00:04:12;;;;;;;10.98;8.00;;;14.80;66.80;;;;;;4935499;29;20031;-64
2022/05/03 00:07:19;;;;;;;12.00;7.68;;;14.80;66.70;;;;;;4936438;29;20040;-64
2022/05/03 00:10:04;;;;;;;14.32;8.98;;;14.80;66.60;;;;;;4935125;29;20046;-64
2022/05/03 00:12:34;;;;;;;;;;;14.80;65.90;;;;;;4937007;29;20027;-64
2022/05/03 00:15:02;;;;;;;12.68;7.90;;;14.80;65.80;;;;;;4928074;29;20048;-64
2022/05/03 00:17:29;;;;;;;10.50;7.97;;;14.80;65.80;;;;;;4935667;29;20043;-64
2022/05/03 00:19:55;;;;;;;11.38;7.25;;;14.80;65.50;;;;;;4934455;29;20028;-63
2022/05/03 00:22:21;;;;;;;8.18;6.18;;;14.80;65.40;;;;;;4935785;29;20028;-63
2022/05/03 00:24:54;;;;;;;9.52;6.20;;;14.80;65.20;;;;;;4934818;29;20059;-63
2022/05/03 00:27:24;;;;;;;10.82;6.70;;;14.90;65.20;;;;;;4935663;29;20068;-63
2022/05/03 00:29:51;;;;;;;9.43;6.07;;;14.90;65.10;;;;;;4934686;29;20062;-63
2022/05/03 00:32:17;;;;;;;10.02;6.57;;;14.80;65.10;;;;;;4935704;29;20023;-64
2022/05/03 00:34:44;;;;;;;8.60;6.22;;;14.80;65.10;;;;;;4927574;29;20123;-63
2022/05/03 00:37:09;;;;;;;8.80;6.13;;;14.80;65.10;;;;;;4934831;29;20032;-63
2022/05/03 00:39:35;;;;;;;9.02;6.97;;;14.80;65.10;;;;;;4920348;29;20087;-63
2022/05/03 00:42:18;;;;;;;8.30;6.85;;;14.80;65.10;;;;;;4928058;29;20100;-63
2022/05/03 00:45:04;;;;;;;10.32;6.10;;;14.80;65.20;;;;;;4930105;29;20041;-64
2022/05/03 00:47:57;;;;;;;11.27;6.50;;;14.80;65.30;;;;;;4935339;29;20502;-64
2022/05/03 00:50:50;;;;;;;9.48;6.68;;;14.80;65.30;;;;;;4935598;29;20365;-63
2022/05/03 00:53:33;;;;;;;10.57;7.10;;;14.80;65.40;;;;;;4917589;29;20397;-63
2022/05/03 00:56:20;;;;;;;7.22;5.90;;;14.80;65.40;;;;;;4934754;29;20043;-63
2022/05/03 00:58:58;;;;;;;10.85;7.38;;;14.80;65.30;;;;;;4917370;29;20426;-64
2022/05/03 01:01:35;;;;;;;8.75;6.20;;;14.70;65.30;;;;;;4931743;29;20489;-63
2022/05/03 01:04:17;;;;;;;9.77;6.30;;;14.70;65.40;;;;;;4933840;29;20498;-64
2022/05/03 01:06:53;;;;;;;9.25;6.28;;;14.70;65.40;;;;;;4935357;29;20123;-64
2022/05/03 01:09:29;;;;;;;9.80;6.82;;;14.70;65.30;;;;;;4930837;29;20492;-64
2022/05/03 01:12:19;;;;;;;11.77;7.00;;;14.70;65.40;;;;;;4935218;29;20063;-63
2022/05/03 01:15:07;;;;;;;8.88;5.78;;;14.70;65.40;;;;;;4928418;29;20488;-64
2022/05/03 01:18:02;;;;;;;11.45;7.13;;;14.70;65.40;;;;;;4934172;29;20062;-64
2022/05/03 01:20:50;;;;;;;8.57;6.40;;;14.70;65.50;;;;;;4934815;29;20518;-64
2022/05/03 01:24:00;;;;;;;9.23;7.07;;;14.60;65.50;;;;;;4932593;29;20146;-64
2022/05/03 01:27:04;;;;;;;9.80;6.68;;;14.60;65.60;;;;;;4907404;29;20072;-64
2022/05/03 01:29:34;;;;;;;10.55;7.68;;;14.50;65.60;;;;;;4907693;29;20047;-64
2022/05/03 01:32:09;;;;;;;11.48;6.57;;;14.50;65.80;;;;;;4933949;29;20035;-64
2022/05/03 01:34:36;;;;;;;9.43;6.80;;;14.50;66.10;;;;;;4925852;29;20028;-64
2022/05/03 01:37:14;;;;;;;9.13;6.63;;;14.40;66.00;;;;;;4930925;29;20582;-64
2022/05/03 01:39:52;;;;;;;8.18;5.97;;;14.40;66.10;;;;;;4907216;29;20110;-64
2022/05/03 01:42:26;;;;;;;8.52;6.70;;;14.30;66.10;;;;;;4928890;29;20111;-64
2022/05/03 01:45:09;;;;;;;8.52;6.30;;;14.30;66.30;;;;;;4924492;29;20044;-63
2022/05/03 01:47:53;;;;;;;9.07;6.75;;;14.20;66.40;;;;;;4920486;29;20042;-63
2022/05/03 01:50:41;;;;;;;7.95;6.22;;;14.20;66.50;;;;;;4934322;29;20114;-63
2022/05/03 01:53:23;;;;;;;10.00;6.35;;;14.10;66.60;;;;;;4933224;29;20039;-64
2022/05/03 01:56:20;;;;;;;9.48;6.45;;;14.00;66.70;;;;;;4931842;29;20035;-64
2022/05/03 01:59:23;;;;;;;8.60;6.30;;;14.00;66.80;;;;;;4929690;29;20066;-64
2022/05/03 02:01:55;;;;;;;9.35;6.28;;;13.90;67.00;;;;;;4933625;29;20040;-64
2022/05/03 02:04:36;;;;;;;10.65;7.03;;;13.90;67.10;;;;;;4933064;29;20040;-63
2022/05/03 02:07:21;;;;;;;10.05;7.38;;;13.80;67.20;;;;;;4933277;29;20034;-63
2022/05/03 02:10:01;;;;;;;11.60;7.40;;;13.80;67.30;;;;;;4915581;29;20043;-63
2022/05/03 02:12:27;;;;;;;11.45;7.03;;;13.70;67.30;;;;;;4918703;29;20039;-63
2022/05/03 02:14:54;;;;;;;9.77;7.20;;;13.60;67.60;;;;;;4932232;29;20043;-64
2022/05/03 02:17:46;;;;;;;11.15;6.72;;;13.50;67.90;;;;;;4925859;29;20510;-64
2022/05/03 02:20:37;;;;;;;8.80;6.90;;;13.50;68.00;;;;;;4934055;29;20035;-64
2022/05/03 02:23:28;;;;;;;9.38;7.07;;;13.40;68.20;;;;;;4932463;29;20047;-64
2022/05/03 02:26:31;;;;;;;9.48;6.25;;;13.30;68.30;;;;;;4905115;29;20047;-64
2022/05/03 02:29:09;;;;;;;11.82;7.75;;;13.30;68.50;;;;;;4930367;29;20122;-64
2022/05/03 02:31:54;;;;;;;9.55;6.85;;;13.20;68.70;;;;;;4933745;29;20031;-64
2022/05/03 02:34:38;;;;;;;9.90;7.57;;;13.10;68.90;;;;;;4920882;29;20031;-64
2022/05/03 02:37:18;;;;;;;10.43;7.00;;;13.10;69.00;;;;;;4932977;29;20116;-64
2022/05/03 02:39:58;;;;;;;11.95;7.13;;;13.00;69.00;;;;;;4913466;29;20092;-64
2022/05/03 02:42:25;;;;;;;10.15;6.80;;;13.00;69.30;;;;;;4918621;29;20030;-64
2022/05/03 02:44:55;;;;;;;11.40;7.72;;;12.90;69.40;;;;;;4934000;29;20122;-63
2022/05/03 02:47:37;;;;;;;9.25;7.10;;;12.90;69.60;;;;;;4932154;29;20095;-63
2022/05/03 02:50:16;;;;;;;10.45;6.97;;;12.90;69.70;;;;;;4917738;29;20046;-63
2022/05/03 02:52:56;;;;;;;12.15;7.03;;;12.80;69.80;;;;;;4932802;29;20055;-63
2022/05/03 02:55:35;;;;;;;9.48;6.93;;;12.80;69.90;;;;;;4934036;29;20032;-63
2022/05/03 02:58:27;;;;;;;12.07;7.47;;;12.80;70.00;;;;;;4928935;29;20028;-64
2022/05/03 03:04:09;;;;;;;11.00;7.65;;;12.80;70.00;;;;;;4935055;29;20028;-64
2022/05/03 03:06:41;;;;;;;11.50;6.63;;;12.80;70.20;;;;;;4937601;29;20036;-64
2022/05/03 03:09:08;;;;;;;9.70;6.75;;;12.80;70.20;;;;;;4935956;29;20048;-63
2022/05/03 03:11:54;;;;;;;11.93;7.38;;;12.80;70.30;;;;;;4937545;29;20028;-63
2022/05/03 03:14:33;;;;;;;14.43;7.45;;;12.80;70.50;;;;;;4919790;29;20044;-63
2022/05/03 03:17:05;;;;;;;10.23;7.18;;;12.80;70.60;;;;;;4935584;29;20091;-64
2022/05/03 03:19:45;;;;;;;9.77;6.75;;;12.70;70.60;;;;;;4934076;29;20039;-64
2022/05/03 03:22:13;;;;;;;19.42;7.95;;;12.70;70.50;;;;;;4919404;29;20078;-64
2022/05/03 03:24:40;;;;;;;10.18;6.85;;;12.60;70.60;;;;;;4936784;29;20063;-63
2022/05/03 03:27:08;;;;;;;10.80;6.63;;;12.60;70.70;;;;;;4934992;29;20040;-63
2022/05/03 03:29:36;;;;;;;9.68;6.45;;;12.60;70.70;;;;;;4934153;29;20054;-63
2022/05/03 03:32:05;;;;;;;11.95;7.65;;;12.40;70.90;;;;;;4935760;29;20383;-64
2022/05/03 03:34:32;;;;;;;10.38;6.38;;;12.40;71.00;;;;;;4933194;29;20032;-63
2022/05/03 03:37:01;;;;;;;9.48;6.90;;;12.40;71.20;;;;;;4935277;29;20040;-63
2022/05/03 03:39:30;;;;;;;10.95;6.97;;;12.30;71.40;;;;;;4936522;29;20067;-63
2022/05/03 03:41:58;;;;;;;9.73;7.18;;;12.30;72.00;;;;;;4936134;29;20031;-63
2022/05/03 03:44:24;;;;;;;11.73;6.88;;;12.30;71.60;;;;;;4930700;29;20056;-63
2022/05/03 03:46:50;;;;;;;14.80;6.65;;;12.30;71.80;;;;;;4936503;29;20419;-63
2022/05/03 03:49:15;;;;;;;10.10;6.68;;;12.30;71.90;;;;;;4927245;29;20044;-63
2022/05/03 03:51:42;;;;;;;10.20;7.15;;;12.20;72.10;;;;;;4936796;29;20072;-63
2022/05/03 03:54:08;;;;;;;10.65;6.47;;;12.20;72.10;;;;;;4926642;29;20044;-63
2022/05/03 03:56:34;;;;;;;9.60;7.03;;;12.20;72.30;;;;;;4910613;29;20455;-64
2022/05/03 03:59:01;;;;;;;11.45;7.20;;;12.20;72.30;;;;;;4935369;29;20118;-63
2022/05/03 04:01:27;;;;;;;10.40;6.55;;;12.10;72.40;;;;;;4936958;29;20223;-63
2022/05/03 04:03:53;;;;;;;9.43;6.20;;;12.20;72.40;;;;;;4935007;29;20027;-63
2022/05/03 04:06:19;;;;;;;8.57;6.57;;;12.10;72.60;;;;;;4936179;29;20115;-63
2022/05/03 04:08:44;;;;;;;9.50;6.50;;;12.10;72.50;;;;;;4935252;29;20071;-63
2022/05/03 04:11:16;;;;;;;9.90;6.53;;;12.10;72.60;;;;;;4936096;29;20020;-63
2022/05/03 04:13:46;;;;;;;9.23;6.40;;;12.10;72.70;;;;;;4935425;29;20032;-63
2022/05/03 04:16:11;;;;;;;10.05;6.95;;;12.10;72.70;;;;;;4936118;29;20027;-63
2022/05/03 04:18:46;;;;;;;11.65;6.70;;;12.20;72.80;;;;;;4935118;29;20370;-63
2022/05/03 04:21:16;;;;;;;9.57;6.32;;;12.20;72.80;;;;;;4917298;29;20032;-63
2022/05/03 04:23:42;;;;;;;11.35;6.47;;;12.20;72.90;;;;;;4930157;29;20059;-63
2022/05/03 04:26:11;;;;;;;9.55;6.65;;;12.30;73.00;;;;;;4935981;29;20106;-63
2022/05/03 04:28:38;;;;;;;11.63;6.53;;;12.30;72.90;;;;;;4934823;29;20399;-63
2022/05/03 04:31:04;;;;;;;8.07;6.40;;;12.40;72.90;;;;;;4935391;29;20028;-63
2022/05/03 04:33:30;;;;;;;7.85;6.32;;;12.40;72.70;;;;;;4934816;29;20494;-63
2022/05/03 04:35:55;;;;;;;8.98;6.78;;;12.50;72.60;;;;;;4935716;29;20058;-63
2022/05/03 04:38:21;;;;;;;12.85;7.18;;;12.40;72.60;;;;;;4934398;29;20091;-63
2022/05/03 04:40:46;;;;;;;9.30;6.20;;;12.50;72.60;;;;;;4934863;29;20032;-67
2022/05/03 04:43:12;;;;;;;9.50;6.47;;;12.50;72.70;;;;;;4929485;29;20175;-68
2022/05/03 04:45:37;;;;;;;10.55;6.32;;;12.50;72.40;;;;;;4935439;29;20368;-68
2022/05/03 04:48:03;;;;;;;10.18;6.85;;;12.60;72.50;;;;;;4927989;29;20036;-65
2022/05/03 04:50:29;;;;;;;8.73;6.55;;;12.60;72.50;;;;;;4926220;29;20047;-65
2022/05/03 04:52:56;;;;;;;12.13;6.53;;;12.60;72.50;;;;;;4933009;29;20042;-66
2022/05/03 04:55:23;;;;;;;11.63;6.40;;;12.70;72.50;;;;;;4917841;29;20048;-66
2022/05/03 04:57:49;;;;;;;9.07;6.07;;;12.70;72.40;;;;;;4917595;29;20024;-66
2022/05/03 05:00:15;;;;;;;11.40;7.03;;;12.80;72.50;;;;;;4916588;29;20115;-67
2022/05/03 05:02:40;;;;;;;9.95;6.95;;;12.80;72.40;;;;;;4923473;29;20110;-67
2022/05/03 05:05:06;;;;;;;10.02;6.78;;;12.90;72.40;;;;;;4925223;29;20040;-67
2022/05/03 05:07:32;;;;;;;8.27;6.35;;;12.90;72.20;;;;;;4902931;29;20143;-67
2022/05/03 05:12:42;;;;;;;9.00;5.82;;;13.00;71.90;;;;;;4932457;29;20028;-68
2022/05/03 05:15:08;;;;;;;8.98;6.10;;;13.00;71.70;;;;;;4930507;29;20398;-68
2022/05/03 05:17:33;;;;;;;9.73;6.00;;;13.00;71.50;;;;;;4932789;29;20032;-68
2022/05/03 05:19:59;;;;;;;9.68;5.32;;;13.10;72.00;;;;;;4934443;29;20042;-69
2022/05/03 05:22:24;;;;;;;10.00;5.25;;;13.00;71.00;;;;;;4918747;29;20024;-68
2022/05/03 05:24:50;;;;;;;8.07;5.32;;;13.00;70.70;;;;;;4936166;29;20040;-68
2022/05/03 05:27:16;;;;;;;9.25;5.10;;;13.10;70.60;;;;;;4923745;29;20091;-68
2022/05/03 05:29:42;;;;;;;8.60;4.80;;;13.10;70.30;;;;;;4931117;29;20036;-68
2022/05/03 05:32:07;;;;;;;7.82;5.10;;;13.20;70.10;;;;;;4919347;29;20036;-67
2022/05/03 05:34:34;;;;;;;8.02;5.22;;;13.30;69.80;;;;;;4919335;29;20046;-68
2022/05/03 05:36:59;;;;;;;9.00;6.07;;;13.30;69.60;;;;;;4920804;29;20032;-68
2022/05/03 05:39:25;;;;;;;9.90;5.97;;;13.40;69.60;;;;;;4916702;29;20075;-67
2022/05/03 05:41:56;;;;;;;9.60;5.53;;;13.40;69.10;;;;;;4933120;29;20040;-68
2022/05/03 05:44:22;;;;;;;10.48;5.45;;;13.40;68.90;;;;;;4904311;29;20043;-67
2022/05/03 05:46:47;;;;;;;10.57;4.97;;;13.50;69.00;;;;;;4920105;29;20031;-66
2022/05/03 05:49:12;;;;;;;10.23;4.80;;;13.60;68.50;;;;;;4921839;29;20099;-67
2022/05/03 05:51:38;;;;;;;9.90;4.90;;;13.60;68.50;;;;;;4918143;29;20066;-65
2022/05/03 05:54:04;;;;;;;7.18;4.90;;;13.70;68.40;;;;;;4922751;29;20040;-68
2022/05/03 05:56:29;;;;;;;7.07;4.43;;;13.70;68.10;;;;;;4919529;29;20031;-67
2022/05/03 05:58:55;;;;;;;9.73;5.20;;;13.90;67.90;;;;;;4933539;29;20031;-67
2022/05/03 06:01:26;;;;;;;8.90;4.93;;;13.90;67.60;;;;;;4932851;29;20099;-68
2022/05/03 06:03:52;;;;;;;7.63;4.80;;;14.00;67.70;;;;;;4925286;29;20116;-67
2022/05/03 06:06:17;;;;;;;13.40;5.53;;;14.10;67.40;;;;;;4924237;29;20091;-68
2022/05/03 06:08:43;;;;;;;10.05;4.57;;;14.20;66.30;;;;;;4925672;29;20110;-67
2022/05/03 06:11:09;;;;;;;5.75;3.30;;;14.20;66.20;;;;;;4925598;29;20483;-67
2022/05/03 06:13:35;;;;;;;6.45;3.90;;;14.20;64.50;;;;;;4932200;29;20061;-68
2022/05/03 06:16:08;;;;;;;7.57;3.72;;;14.20;63.80;;;;;;4933070;29;20023;-67
2022/05/03 06:18:33;;;;;;;16.02;5.78;;;14.30;63.70;;;;;;4928988;29;20035;-65
2022/05/03 06:21:00;;;;;;;8.38;3.45;;;14.30;63.40;;;;;;4933303;29;20036;-65
2022/05/03 06:23:26;;;;;;;5.55;3.38;;;14.30;63.00;;;;;;4930150;29;20060;-65
2022/05/03 06:25:52;;;;;;;6.03;3.00;;;14.30;62.80;;;;;;4921244;29;20039;-65
2022/05/03 06:28:19;;;;;;;6.05;3.70;;;14.40;62.70;;;;;;4922566;29;20044;-65
2022/05/03 06:30:44;;;;;;;5.57;3.30;;;14.40;62.10;;;;;;4917619;29;20034;-65
2022/05/03 06:33:10;;;;;;;4.97;3.42;;;14.40;61.50;;;;;;4931707;29;20035;-65
2022/05/03 06:35:35;;;;;;;7.00;4.00;;;14.50;61.90;;;;;;4934625;29;20043;-66
2022/05/03 06:38:01;;;;;;;11.88;4.40;;;14.50;61.60;;;;;;4936337;29;20034;-65
2022/05/03 06:40:26;;;;;;;13.18;4.25;;;14.50;61.10;;;;;;4930574;29;20032;-66
2022/05/03 06:42:52;;;;;;;11.30;4.32;;;14.50;61.30;;;;;;4930902;29;20373;-64
2022/05/03 06:45:18;;;;;;;4.35;3.00;;;14.50;60.90;;;;;;4918665;29;20066;-65
2022/05/03 06:47:44;;;;;;;4.40;2.42;;;14.50;60.90;;;;;;4934062;29;20031;-64
2022/05/03 06:50:10;;;;;;;3.40;2.33;;;14.50;60.60;;;;;;4935676;29;20040;-65
2022/05/03 06:52:36;;;;;;;4.80;2.00;;;14.50;60.70;;;;;;4924024;29;20070;-65
2022/05/03 06:55:01;;;;;;;4.43;2.60;;;14.50;60.20;;;;;;4924079;29;20032;-64
2022/05/03 06:57:26;;;;;;;7.05;2.63;;;14.50;60.40;;;;;;4928617;29;20027;-65
2022/05/03 06:59:52;;;;;;;3.85;2.42;;;14.50;60.40;;;;;;4926068;29;20517;-65
2022/05/03 07:02:18;;;;;;;4.13;2.10;;;14.60;60.50;;;;;;4925809;29;20028;-65
2022/05/03 07:04:44;;;;;;;6.47;3.38;;;14.60;60.30;;;;;;4918905;29;20032;-65
2022/05/03 07:07:10;;;;;;;8.90;3.25;;;14.60;59.70;;;;;;4921946;29;20034;-65
2022/05/03 07:09:36;;;;;;;5.95;2.50;;;14.60;60.10;;;;;;4936560;29;20079;-65
2022/05/03 07:12:02;;;;;;;4.97;2.28;;;14.60;59.70;;;;;;4938331;29;20491;-65
2022/05/03 07:14:27;;;;;;;5.75;2.65;;;14.70;60.10;;;;;;4923858;29;20463;-65
2022/05/03 07:16:53;;;;;;;5.40;2.17;;;14.80;60.20;;;;;;4935825;29;20031;-65
2022/05/03 07:24:47;;;;;;;6.50;2.30;;;15.10;59.30;;;;;;4924829;29;20078;-66
2022/05/03 07:27:13;;;;;;;3.83;2.05;;;15.10;59.50;;;;;;4934819;29;20122;-66
2022/05/03 07:29:38;;;;;;;5.72;2.30;;;15.20;58.60;;;;;;4925419;29;20044;-65
2022/05/03 07:32:04;;;;;;;5.90;2.08;;;15.20;57.90;;;;;;4923450;29;20124;-65
2022/05/03 07:34:30;;;;;;;4.75;2.45;;;15.40;57.50;;;;;;4932740;29;20063;-65
2022/05/03 07:36:55;;;;;;;4.88;2.60;;;15.50;57.60;;;;;;4922174;29;20480;-65
2022/05/03 07:39:21;;;;;;;5.25;2.30;;;15.50;56.80;;;;;;4918107;29;20080;-65
2022/05/03 07:41:46;;;;;;;4.28;2.10;;;15.60;56.70;;;;;;4935557;29;20502;-67
2022/05/03 07:44:12;;;;;;;3.90;2.10;;;15.60;56.80;;;;;;4935516;29;20063;-65
2022/05/03 07:46:37;;;;;;;4.45;1.85;;;15.70;56.60;;;;;;4920120;29;20472;-66
2022/05/03 07:49:03;;;;;;;4.70;1.95;;;15.80;56.80;;;;;;4935334;29;20131;-65
2022/05/03 07:51:28;;;;;;;4.75;2.40;;;15.90;57.00;;;;;;4915986;29;20487;-65
2022/05/03 07:53:54;;;;;;;4.03;2.00;;;15.90;56.80;;;;;;4933491;29;20031;-65
2022/05/03 07:56:19;;;;;;;6.70;3.40;;;15.90;57.00;;;;;;4920684;29;20495;-65
2022/05/03 07:58:45;;;;;;;4.65;2.75;;;15.90;57.30;;;;;;4921477;29;20091;-65
2022/05/03 08:01:10;;;;;;;11.15;4.90;;;16.00;57.60;;;;;;4931334;29;20510;-65
2022/05/03 08:03:36;;;;;;;5.07;2.72;;;16.10;57.40;;;;;;4935673;29;20020;-65
2022/05/03 08:06:02;;;;;;;5.00;3.20;;;16.20;57.00;;;;;;4935571;29;20485;-65
2022/05/03 08:08:28;;;;;;;5.13;2.90;;;16.20;56.70;;;;;;4935267;29;20511;-65
2022/05/03 08:10:54;;;;;;;5.10;2.80;;;16.20;56.40;;;;;;4935861;29;20403;-65
2022/05/03 08:13:19;;;;;;;3.90;2.42;;;16.30;56.60;;;;;;4935061;29;20027;-65
2022/05/03 08:15:45;;;;;;;4.47;2.70;;;16.40;56.90;;;;;;4924957;29;20036;-65
2022/05/03 08:18:10;;;;;;;12.55;3.42;;;16.40;57.10;;;;;;4926427;29;20495;-65
2022/05/03 08:20:36;;;;;;;6.75;3.28;;;16.50;57.10;;;;;;4935166;29;20028;-65
2022/05/03 08:23:01;;;;;;;5.63;2.70;;;16.50;57.20;;;;;;4927313;29;20096;-66
2022/05/03 08:25:27;;;;;;;5.22;2.85;;;16.60;56.70;;;;;;4900527;29;20044;-65
2022/05/03 08:27:53;;;;;;;7.22;3.20;;;16.70;56.70;;;;;;4924243;29;20087;-66
2022/05/03 08:30:18;;;;;;;7.05;3.33;;;16.80;56.40;;;;;;4935140;29;20039;-65
2022/05/03 08:32:44;;;;;;;4.93;3.00;;;16.80;55.90;;;;;;4935301;29;20020;-66
2022/05/03 08:35:09;;;;;;;4.95;2.92;;;16.90;55.90;;;;;;4934286;29;20380;-65
2022/05/03 08:43:06;;;;;;;4.65;2.83;;;17.10;55.70;;;;;;4925279;29;20291;-66
2022/05/03 08:45:32;;;;;;;6.68;2.47;;;17.30;56.00;;;;;;4918222;29;20040;-66
2022/05/03 08:48:00;;;;;;;8.75;3.40;;;17.40;56.10;;;;;;4934607;29;20031;-66
2022/05/03 08:50:26;;;;;;;6.35;2.92;;;17.50;55.60;;;;;;4934879;29;20066;-66
2022/05/03 08:52:58;;;;;;;5.82;2.70;;;17.50;55.00;;;;;;4934591;29;20063;-65
2022/05/03 08:55:24;;;;;;;4.13;2.70;;;17.60;54.60;;;;;;4934140;29;20034;-66
2022/05/03 08:57:50;;;;;;;6.05;2.60;;;17.60;54.60;;;;;;4933333;29;20107;-65
2022/05/03 09:00:18;;;;;;;5.70;2.95;;;17.70;54.30;;;;;;4934001;29;20111;-66
2022/05/03 09:02:46;;;;;;;6.78;2.95;;;17.70;54.20;;;;;;4934216;29;20067;-66
2022/05/03 09:05:12;;;;;;;5.20;2.58;;;17.70;54.10;;;;;;4929512;29;20490;-66
2022/05/03 09:07:38;;;;;;;6.32;3.00;;;17.80;54.30;;;;;;4916052;29;20046;-66
2022/05/03 09:10:27;;;;;;;4.10;2.58;;;17.80;54.60;;;;;;4919886;29;20024;-66
2022/05/03 09:12:55;;;;;;;3.85;2.70;;;17.90;54.20;;;;;;4933726;29;20032;-65
2022/05/03 09:15:32;;;;;;;4.70;2.42;;;18.00;53.80;;;;;;4926963;29;20639;-65
2022/05/03 09:17:59;;;;;;;4.20;2.83;;;18.00;53.60;;;;;;4923829;29;20043;-64
2022/05/03 09:26:19;;;;;;;5.25;2.67;;;18.10;53.40;;;;;;4934514;29;20035;-65
2022/05/03 09:29:08;;;;;;;4.88;2.45;;;18.10;53.20;;;;;;4934054;29;20040;-65
2022/05/03 09:31:35;;;;;;;4.43;2.42;;;18.10;52.40;;;;;;4915669;29;20047;-65
2022/05/03 09:34:27;;;;;;;5.32;2.47;;;17.90;52.20;;;;;;4931778;29;20034;-65
2022/05/03 09:37:03;;;;;;;5.68;2.00;;;18.00;52.30;;;;;;4932747;29;20039;-65
2022/05/03 09:39:31;;;;;;;4.00;1.90;;;18.00;52.30;;;;;;4916052;29;20036;-65
2022/05/03 09:42:07;;;;;;;5.07;1.95;;;18.10;52.00;;;;;;4915326;29;20115;-65
2022/05/03 09:44:36;;;;;;;6.22;1.83;;;18.10;51.50;;;;;;4916523;29;20040;-65
2022/05/03 09:47:08;;;;;;;3.17;1.90;;;18.10;51.40;;;;;;4916258;29;20377;-65
2022/05/03 09:49:39;;;;;;;5.57;2.83;;;18.20;51.50;;;;;;4933172;29;20044;-65
2022/05/03 09:52:06;;;;;;;2.90;1.83;;;18.20;50.60;;;;;;4932382;29;20106;-65
2022/05/03 09:54:50;;;;;;;3.78;2.03;;;18.20;50.10;;;;;;4944305;29;20034;-65
2022/05/03 09:57:21;;;;;;;5.43;2.03;;;18.20;49.40;;;;;;4917796;29;20345;-67
2022/05/03 09:59:48;;;;;;;3.03;1.75;;;18.30;48.70;;;;;;4898874;29;20124;-67
2022/05/03 10:02:20;;;;;;;3.85;1.73;;;18.20;47.90;;;;;;4932145;29;20024;-66
2022/05/03 10:04:47;;;;;;;5.80;1.90;;;18.20;46.50;;;;;;4924666;29;20846;-66
2022/05/03 10:07:12;;;;;;;3.20;1.95;;;18.20;47.50;;;;;;4915441;29;20031;-66
2022/05/03 10:09:40;;;;;;;6.20;2.08;;;18.20;48.00;;;;;;4931109;29;20062;-65
2022/05/03 10:12:08;;;;;;;3.72;2.10;;;18.20;47.90;;;;;;4916360;29;20092;-66
2022/05/03 10:14:34;;;;;;;3.83;1.73;;;18.30;47.90;;;;;;4920253;29;20036;-65
2022/05/03 10:22:36;;;;;;;6.35;1.98;;;18.30;48.50;;;;;;4918360;29;20101;-66
2022/05/03 10:25:04;;;;;;;4.55;2.45;;;18.30;47.90;;;;;;4916551;29;20043;-65
2022/05/03 10:27:32;;;;;;;4.88;1.90;;;18.40;48.50;;;;;;4931920;29;20032;-65
2022/05/03 10:30:16;;;;;;;3.47;1.70;;;18.40;48.20;;;;;;4914890;29;20036;-65
2022/05/03 10:32:42;;;;;;;4.33;2.07;;;18.40;47.40;;;;;;4918195;29;20424;-66
2022/05/03 10:35:34;;;;;;;2.53;1.63;;;18.40;47.70;;;;;;4930209;29;20292;-66
2022/05/03 10:37:59;;;;;;;4.75;2.25;;;18.50;47.90;;;;;;4917439;29;20039;-65
2022/05/03 10:40:39;;;;;;;5.95;2.50;;;18.50;47.20;;;;;;4929401;29;20032;-66
2022/05/03 10:43:07;;;;;;;3.08;1.92;;;18.50;47.70;;;;;;4918812;29;20107;-66
2022/05/03 10:45:47;;;;;;;4.57;2.08;;;18.60;48.40;;;;;;4919788;29;20040;-67
2022/05/03 10:48:28;;;;;;;4.43;2.58;;;18.70;48.50;;;;;;4914972;29;20036;-66
2022/05/03 10:51:00;;;;;;;4.00;1.83;;;18.70;48.30;;;;;;4932692;29;20126;-67
2022/05/03 10:53:27;;;;;;;3.50;1.85;;;18.80;48.70;;;;;;4931629;29;20034;-67
2022/05/03 10:56:06;;;;;;;3.47;2.08;;;18.90;48.30;;;;;;4932110;29;20046;-67
2022/05/03 10:58:42;;;;;;;7.00;3.15;;;18.90;49.30;;;;;;4923201;29;20032;-66
2022/05/03 11:01:21;;;;;;;6.90;3.00;;;19.00;48.10;;;;;;4926613;29;20055;-67
2022/05/03 11:03:47;;;;;;;2.45;1.60;;;19.00;48.00;;;;;;4923721;29;20028;-68
2022/05/03 11:06:18;;;;;;;2.47;1.60;;;19.00;47.90;;;;;;4932160;29;20594;-66
2022/05/03 11:11:50;;;;;;;2.35;1.60;;;19.10;47.90;;;;;;4933047;29;20040;-66
2022/05/03 11:14:19;;;;;;;3.45;2.50;;;19.10;48.60;;;;;;4929999;29;20020;-66
2022/05/03 11:17:09;;;;;;;2.45;1.77;;;19.20;48.50;;;;;;4922123;29;20090;-66
2022/05/03 11:19:47;;;;;;;3.88;1.45;;;19.20;47.80;;;;;;4920417;29;20444;-67
2022/05/03 11:22:15;;;;;;;2.33;1.50;;;19.20;46.80;;;;;;4920774;29;20035;-67
2022/05/03 11:24:49;;;;;;;6.38;1.70;;;19.10;46.70;;;;;;4935891;29;20110;-67
2022/05/03 11:27:16;;;;;;;4.13;1.70;;;19.20;46.90;;;;;;4928928;29;20110;-66
2022/05/03 11:29:50;;;;;;;5.68;1.73;;;19.10;47.10;;;;;;4935994;29;20055;-66
2022/05/03 11:32:27;;;;;;;5.22;1.55;;;19.20;48.10;;;;;;4930553;29;20031;-66
2022/05/03 11:34:59;;;;;;;3.58;1.70;;;19.20;47.50;;;;;;4936194;29;20044;-68
2022/05/03 11:37:24;;;;;;;2.65;1.38;;;19.20;47.20;;;;;;4934656;29;20339;-67
2022/05/03 11:39:52;;;;;;;4.53;1.70;;;19.30;47.00;;;;;;4920891;29;20028;-67
2022/05/03 11:42:21;;;;;;;8.43;1.75;;;19.30;46.90;;;;;;4930724;29;20040;-67
2022/05/03 11:44:47;;;;;;;4.90;1.75;;;19.30;47.30;;;;;;4921512;29;20123;-67
2022/05/03 11:47:14;;;;;;;3.28;1.83;;;19.30;47.10;;;;;;4902439;29;20184;-67
2022/05/03 11:49:39;;;;;;;11.45;2.95;;;19.30;47.30;;;;;;4921597;29;20091;-66
2022/05/03 11:57:37;;;;;;;4.00;1.58;;;19.30;47.20;;;;;;4931527;29;20702;-65
2022/05/03 12:00:06;;;;;;;2.42;1.73;;;19.30;47.30;;;;;;4934827;29;20447;-65
2022/05/03 12:02:34;;;;;;;4.00;1.60;;;19.30;47.50;;;;;;4933231;29;20031;-65
2022/05/03 12:05:27;;;;;;;5.32;1.77;;;19.20;47.10;;;;;;4933964;29;20075;-65
2022/05/03 12:07:57;;;;;;;9.63;3.03;;;19.20;47.20;;;;;;4934458;29;20596;-65
2022/05/03 12:10:49;;;;;;;2.65;1.50;;;19.20;47.10;;;;;;4934652;29;20039;-65
2022/05/03 12:13:24;;;;;;;6.97;2.50;;;19.30;47.30;;;;;;4922801;29;20479;-65
2022/05/03 12:16:02;;;;;;;;;;;19.30;46.70;;;;;;4945724;29;20019;-66
2022/05/03 12:18:32;;;;;;;4.40;1.20;;;19.30;46.90;;;;;;4934248;29;20271;-66
2022/05/03 12:21:03;;;;;;;4.70;1.60;;;19.40;46.40;;;;;;4936131;29;20032;-65
2022/05/03 12:23:38;;;;;;;3.38;1.70;;;19.40;46.30;;;;;;4915020;29;20682;-65
2022/05/03 12:26:33;;;;;;;4.22;2.00;;;19.50;46.50;;;;;;4932940;29;20071;-65
2022/05/03 12:29:00;;;;;;;4.95;1.33;;;19.60;46.70;;;;;;4934352;29;20604;-65
2022/05/03 12:31:35;;;;;;;2.90;1.35;;;19.70;47.20;;;;;;4934708;29;20055;-65
2022/05/03 12:34:02;;;;;;;2.00;1.25;;;19.80;47.30;;;;;;4934716;29;20483;-65
2022/05/03 12:36:35;;;;;;;2.00;1.27;;;20.00;46.80;;;;;;4934519;29;20035;-64
2022/05/03 12:39:21;;;;;;;2.75;1.30;;;20.00;47.10;;;;;;4934755;29;20716;-65
2022/05/03 12:41:55;;;;;;;2.83;1.38;;;20.20;47.10;;;;;;4921312;29;20035;-66
2022/05/03 12:44:22;;;;;;;4.05;1.38;;;20.30;46.90;;;;;;4934496;29;20479;-66
2022/05/03 12:46:50;;;;;;;4.82;1.73;;;20.40;46.30;;;;;;4935637;29;20070;-65
2022/05/03 12:49:16;;;;;;;4.35;1.70;;;20.40;46.30;;;;;;4928876;29;20035;-64
2022/05/03 12:51:43;;;;;;;1.48;1.05;;;20.40;46.30;;;;;;4935610;29;20160;-65
2022/05/03 12:54:10;;;;;;;2.50;1.30;;;20.50;45.80;;;;;;4940651;29;20043;-65
2022/05/03 12:59:21;;;;;;;4.18;1.50;;;20.70;46.30;;;;;;4924038;29;20071;-66
2022/05/03 13:01:50;;;;;;;2.80;1.30;;;20.90;46.10;;;;;;4934255;29;20563;-66
2022/05/03 13:04:16;;;;;;;3.72;1.70;;;21.10;46.20;;;;;;4928417;29;20399;-68
2022/05/03 13:06:42;;;;;;;4.32;1.40;;;21.20;46.30;;;;;;4932996;29;20127;-69
2022/05/03 13:09:07;;;;;;;3.78;1.40;;;21.40;46.40;;;;;;4933504;29;20043;-69
2022/05/03 13:11:34;;;;;;;3.83;1.30;;;21.60;45.90;;;;;;4933776;29;20031;-69
2022/05/03 13:14:00;;;;;;;3.90;1.23;;;21.60;45.40;;;;;;4929954;29;20129;-69
2022/05/03 13:16:26;;;;;;;4.93;1.60;;;21.60;45.50;;;;;;4931696;29;20036;-69
2022/05/03 13:18:52;;;;;;;5.22;1.52;;;21.80;45.60;;;;;;4934094;29;20042;-69
2022/05/03 13:21:17;;;;;;;4.07;1.60;;;21.70;45.70;;;;;;4934449;29;20032;-69
2022/05/03 13:23:43;;;;;;;5.65;1.52;;;21.60;45.70;;;;;;4931843;29;20063;-69
2022/05/03 13:26:08;;;;;;;2.92;1.33;;;21.50;45.10;;;;;;4932429;29;20047;-69
2022/05/03 13:28:34;;;;;;;2.47;1.17;;;21.50;46.00;;;;;;4916496;29;20039;-69
2022/05/03 13:30:59;;;;;;;1.90;1.20;;;21.40;45.40;;;;;;4933275;29;20078;-69
2022/05/03 13:33:25;;;;;;;3.33;1.13;;;21.30;45.60;;;;;;4934184;29;20083;-69
2022/05/03 13:41:38;;;;;;;1.95;0.98;;;21.40;45.60;;;;;;4875012;29;20119;-67
2022/05/03 13:44:05;;;;;;;3.22;1.10;;;21.40;45.60;;;;;;4858663;29;20181;-75
2022/05/03 13:46:30;;;;;;;3.30;1.48;;;21.30;45.40;;;;;;4891946;29;20079;-70
2022/05/03 13:48:56;;;;;;;2.38;1.30;;;21.20;45.50;;;;;;4927218;29;20475;-69
2022/05/03 13:51:21;;;;;;;3.45;1.13;;;21.20;45.50;;;;;;4932850;29;20514;-69